sensor_id;sensor_type;location;lat;lon;timestamp;P1;durP1;ratioP1;P2;durP2;ratioP2
5483;SDS011;2764;48.794;8.326;2023-02-28T00:00:07;5.20;;;4.28;;
5483;SDS011;2764;48.794;8.326;2023-02-28T00:01:14;5.90;;;3.70;;
5483;SDS011;2764;48.794;8.326;2023-02-28T00:02:17;6.50;;;4.40;;
5483;SDS011;2764;48.794;8.326;2023-02-28T00:03:19;8.63;;;4.15;;
5483;SDS011;2764;48.794;8.326;2023-02-28T00:04:21;4.90;;;4.50;;
5483;SDS011;2764;48.794;8.326;2023-02-28T00:05:23;5.68;;;4.00;;
5483;SDS011;2764;48.794;8.326;2023-02-28T00:06:26;6.40;;;4.85;;
5483;SDS011;2764;48.794;8.326;2023-02-28T00:07:29;6.43;;;4.70;;
5483;SDS011;2764;48.794;8.326;2023-02-28T00:08:32;4.90;;;4.00;;
5483;SDS011;2764;48.794;8.326;2023-02-28T00:09:34;7.80;;;4.93;;
5483;SDS011;2764;48.794;8.326;2023-02-28T00:10:35;4.07;;;3.60;;
5483;SDS011;2764;48.794;8.326;2023-02-28T00:11:37;3.92;;;3.63;;
5483;SDS011;2764;48.794;8.326;2023-02-28T00:12:39;4.72;;;3.60;;
5483;SDS011;2764;48.794;8.326;2023-02-28T00:13:43;4.53;;;3.75;;
5483;SDS011;2764;48.794;8.326;2023-02-28T00:14:50;4.95;;;4.00;;
5483;SDS011;2764;48.794;8.326;2023-02-28T00:15:58;4.85;;;3.97;;
5483;SDS011;2764;48.794;8.326;2023-02-28T00:17:02;4.70;;;4.07;;
5483;SDS011;2764;48.794;8.326;2023-02-28T00:18:03;5.90;;;4.22;;
5483;SDS011;2764;48.794;8.326;2023-02-28T00:19:05;6.15;;;4.90;;
5483;SDS011;2764;48.794;8.326;2023-02-28T00:20:08;4.70;;;4.30;;
5483;SDS011;2764;48.794;8.326;2023-02-28T00:21:11;3.50;;;3.30;;
5483;SDS011;2764;48.794;8.326;2023-02-28T00:22:13;5.22;;;3.80;;
5483;SDS011;2764;48.794;8.326;2023-02-28T00:23:15;5.53;;;4.85;;
5483;SDS011;2764;48.794;8.326;2023-02-28T00:24:18;4.80;;;4.30;;
5483;SDS011;2764;48.794;8.326;2023-02-28T00:25:21;3.80;;;3.50;;
5483;SDS011;2764;48.794;8.326;2023-02-28T00:26:25;3.05;;;2.85;;
5483;SDS011;2764;48.794;8.326;2023-02-28T00:27:27;3.90;;;2.72;;
5483;SDS011;2764;48.794;8.326;2023-02-28T00:28:29;2.85;;;2.65;;
5483;SDS011;2764;48.794;8.326;2023-02-28T00:29:31;2.95;;;2.75;;
5483;SDS011;2764;48.794;8.326;2023-02-28T00:30:33;4.00;;;3.55;;
5483;SDS011;2764;48.794;8.326;2023-02-28T00:31:35;6.35;;;4.70;;
5483;SDS011;2764;48.794;8.326;2023-02-28T00:32:37;4.57;;;3.45;;
5483;SDS011;2764;48.794;8.326;2023-02-28T00:33:39;5.78;;;3.80;;
5483;SDS011;2764;48.794;8.326;2023-02-28T00:34:41;4.07;;;3.28;;
5483;SDS011;2764;48.794;8.326;2023-02-28T00:35:43;3.30;;;2.95;;
5483;SDS011;2764;48.794;8.326;2023-02-28T00:36:47;2.92;;;2.75;;
5483;SDS011;2764;48.794;8.326;2023-02-28T00:37:52;3.80;;;3.50;;
5483;SDS011;2764;48.794;8.326;2023-02-28T00:38:53;2.90;;;2.70;;
5483;SDS011;2764;48.794;8.326;2023-02-28T00:39:55;2.72;;;2.63;;
5483;SDS011;2764;48.794;8.326;2023-02-28T00:40:57;2.78;;;2.58;;
5483;SDS011;2764;48.794;8.326;2023-02-28T00:42:00;5.22;;;2.90;;
5483;SDS011;2764;48.794;8.326;2023-02-28T00:43:01;5.13;;;3.85;;
5483;SDS011;2764;48.794;8.326;2023-02-28T00:44:04;5.50;;;4.82;;
5483;SDS011;2764;48.794;8.326;2023-02-28T00:45:06;5.60;;;4.85;;
5483;SDS011;2764;48.794;8.326;2023-02-28T00:46:09;4.55;;;4.05;;
5483;SDS011;2764;48.794;8.326;2023-02-28T00:47:11;4.75;;;4.35;;
5483;SDS011;2764;48.794;8.326;2023-02-28T00:48:13;4.53;;;4.13;;
5483;SDS011;2764;48.794;8.326;2023-02-28T00:49:15;4.28;;;3.88;;
5483;SDS011;2764;48.794;8.326;2023-02-28T00:50:18;5.20;;;4.38;;
5483;SDS011;2764;48.794;8.326;2023-02-28T00:51:21;8.52;;;4.70;;
5483;SDS011;2764;48.794;8.326;2023-02-28T00:52:23;5.15;;;4.40;;
5483;SDS011;2764;48.794;8.326;2023-02-28T00:53:24;5.00;;;4.45;;
5483;SDS011;2764;48.794;8.326;2023-02-28T00:54:26;6.18;;;4.38;;
5483;SDS011;2764;48.794;8.326;2023-02-28T00:55:29;4.90;;;4.03;;
5483;SDS011;2764;48.794;8.326;2023-02-28T00:56:31;10.13;;;4.28;;
5483;SDS011;2764;48.794;8.326;2023-02-28T00:57:33;5.15;;;4.65;;
5483;SDS011;2764;48.794;8.326;2023-02-28T00:58:35;11.52;;;4.93;;
5483;SDS011;2764;48.794;8.326;2023-02-28T00:59:37;5.20;;;4.63;;
5483;SDS011;2764;48.794;8.326;2023-02-28T01:00:38;8.60;;;5.30;;
5483;SDS011;2764;48.794;8.326;2023-02-28T01:01:40;8.05;;;4.78;;
5483;SDS011;2764;48.794;8.326;2023-02-28T01:02:43;6.15;;;4.20;;
5483;SDS011;2764;48.794;8.326;2023-02-28T01:03:45;8.20;;;4.88;;
5483;SDS011;2764;48.794;8.326;2023-02-28T01:04:47;3.95;;;3.65;;
5483;SDS011;2764;48.794;8.326;2023-02-28T01:05:49;6.13;;;3.63;;
5483;SDS011;2764;48.794;8.326;2023-02-28T01:06:51;6.28;;;4.90;;
5483;SDS011;2764;48.794;8.326;2023-02-28T01:07:53;6.75;;;5.40;;
5483;SDS011;2764;48.794;8.326;2023-02-28T01:08:55;4.78;;;4.38;;
5483;SDS011;2764;48.794;8.326;2023-02-28T01:09:56;5.85;;;4.85;;
5483;SDS011;2764;48.794;8.326;2023-02-28T01:11:06;5.63;;;4.65;;
5483;SDS011;2764;48.794;8.326;2023-02-28T01:12:09;12.27;;;4.65;;
5483;SDS011;2764;48.794;8.326;2023-02-28T01:13:11;5.53;;;5.00;;
5483;SDS011;2764;48.794;8.326;2023-02-28T01:14:15;6.22;;;5.00;;
5483;SDS011;2764;48.794;8.326;2023-02-28T01:15:18;5.85;;;4.95;;
5483;SDS011;2764;48.794;8.326;2023-02-28T01:16:20;6.40;;;4.70;;
5483;SDS011;2764;48.794;8.326;2023-02-28T01:17:22;4.75;;;4.38;;
5483;SDS011;2764;48.794;8.326;2023-02-28T01:18:24;5.75;;;4.80;;
5483;SDS011;2764;48.794;8.326;2023-02-28T01:19:27;6.10;;;5.00;;
5483;SDS011;2764;48.794;8.326;2023-02-28T01:20:29;12.02;;;5.68;;
5483;SDS011;2764;48.794;8.326;2023-02-28T01:21:31;11.15;;;5.22;;
5483;SDS011;2764;48.794;8.326;2023-02-28T01:22:34;5.32;;;4.20;;
5483;SDS011;2764;48.794;8.326;2023-02-28T01:23:36;5.13;;;3.95;;
5483;SDS011;2764;48.794;8.326;2023-02-28T01:24:38;10.85;;;5.95;;
5483;SDS011;2764;48.794;8.326;2023-02-28T01:25:43;12.38;;;6.30;;
5483;SDS011;2764;48.794;8.326;2023-02-28T01:26:45;5.97;;;4.95;;
5483;SDS011;2764;48.794;8.326;2023-02-28T01:27:47;4.72;;;4.32;;
5483;SDS011;2764;48.794;8.326;2023-02-28T01:28:49;5.53;;;4.45;;
5483;SDS011;2764;48.794;8.326;2023-02-28T01:29:52;6.68;;;4.53;;
5483;SDS011;2764;48.794;8.326;2023-02-28T01:30:54;5.60;;;4.57;;
5483;SDS011;2764;48.794;8.326;2023-02-28T01:31:56;11.30;;;4.82;;
5483;SDS011;2764;48.794;8.326;2023-02-28T01:32:58;5.10;;;4.32;;
5483;SDS011;2764;48.794;8.326;2023-02-28T01:34:01;7.30;;;4.47;;
5483;SDS011;2764;48.794;8.326;2023-02-28T01:35:03;7.45;;;4.75;;
5483;SDS011;2764;48.794;8.326;2023-02-28T01:36:07;6.18;;;5.10;;
5483;SDS011;2764;48.794;8.326;2023-02-28T01:37:12;6.28;;;4.85;;
5483;SDS011;2764;48.794;8.326;2023-02-28T01:38:14;5.93;;;4.53;;
5483;SDS011;2764;48.794;8.326;2023-02-28T01:39:23;4.40;;;4.00;;
5483;SDS011;2764;48.794;8.326;2023-02-28T01:40:25;5.07;;;4.55;;
5483;SDS011;2764;48.794;8.326;2023-02-28T01:41:29;5.03;;;4.53;;
5483;SDS011;2764;48.794;8.326;2023-02-28T01:42:34;7.63;;;5.03;;
5483;SDS011;2764;48.794;8.326;2023-02-28T01:46:04;5.30;;;4.80;;
5483;SDS011;2764;48.794;8.326;2023-02-28T01:47:06;8.32;;;5.35;;
5483;SDS011;2764;48.794;8.326;2023-02-28T01:48:08;6.22;;;5.30;;
5483;SDS011;2764;48.794;8.326;2023-02-28T01:49:14;7.15;;;6.35;;
5483;SDS011;2764;48.794;8.326;2023-02-28T01:50:20;6.32;;;5.70;;
5483;SDS011;2764;48.794;8.326;2023-02-28T01:51:29;6.93;;;5.88;;
5483;SDS011;2764;48.794;8.326;2023-02-28T01:52:34;7.88;;;5.47;;
5483;SDS011;2764;48.794;8.326;2023-02-28T01:53:47;6.72;;;6.05;;
5483;SDS011;2764;48.794;8.326;2023-02-28T01:54:54;8.45;;;6.05;;
5483;SDS011;2764;48.794;8.326;2023-02-28T01:55:57;8.15;;;5.95;;
5483;SDS011;2764;48.794;8.326;2023-02-28T01:57:08;8.73;;;6.32;;
5483;SDS011;2764;48.794;8.326;2023-02-28T01:58:13;7.00;;;6.10;;
5483;SDS011;2764;48.794;8.326;2023-02-28T01:59:19;6.28;;;5.63;;
5483;SDS011;2764;48.794;8.326;2023-02-28T02:00:29;5.90;;;5.35;;
5483;SDS011;2764;48.794;8.326;2023-02-28T02:01:32;6.72;;;4.93;;
5483;SDS011;2764;48.794;8.326;2023-02-28T02:02:35;9.07;;;5.68;;
5483;SDS011;2764;48.794;8.326;2023-02-28T02:03:38;9.20;;;6.40;;
5483;SDS011;2764;48.794;8.326;2023-02-28T02:04:41;5.90;;;5.25;;
5483;SDS011;2764;48.794;8.326;2023-02-28T02:05:51;6.18;;;5.63;;
5483;SDS011;2764;48.794;8.326;2023-02-28T02:06:53;7.03;;;6.38;;
5483;SDS011;2764;48.794;8.326;2023-02-28T02:07:56;6.70;;;6.07;;
5483;SDS011;2764;48.794;8.326;2023-02-28T02:09:04;11.65;;;7.20;;
5483;SDS011;2764;48.794;8.326;2023-02-28T02:11:17;8.75;;;5.90;;
5483;SDS011;2764;48.794;8.326;2023-02-28T02:12:27;10.35;;;6.95;;
5483;SDS011;2764;48.794;8.326;2023-02-28T02:14:01;9.35;;;5.85;;
5483;SDS011;2764;48.794;8.326;2023-02-28T02:15:16;8.85;;;6.50;;
5483;SDS011;2764;48.794;8.326;2023-02-28T02:16:39;8.50;;;7.00;;
5483;SDS011;2764;48.794;8.326;2023-02-28T02:18:02;9.35;;;6.43;;
5483;SDS011;2764;48.794;8.326;2023-02-28T02:22:19;7.28;;;6.68;;
5483;SDS011;2764;48.794;8.326;2023-02-28T02:25:03;6.63;;;5.97;;
5483;SDS011;2764;48.794;8.326;2023-02-28T02:36:36;8.27;;;7.47;;
5483;SDS011;2764;48.794;8.326;2023-02-28T02:37:50;9.70;;;7.55;;
5483;SDS011;2764;48.794;8.326;2023-02-28T02:39:03;11.15;;;7.50;;
5483;SDS011;2764;48.794;8.326;2023-02-28T02:40:58;9.80;;;8.10;;
5483;SDS011;2764;48.794;8.326;2023-02-28T02:42:16;10.45;;;8.73;;
5483;SDS011;2764;48.794;8.326;2023-02-28T02:44:16;10.68;;;8.05;;
5483;SDS011;2764;48.794;8.326;2023-02-28T02:45:48;11.02;;;7.38;;
5483;SDS011;2764;48.794;8.326;2023-02-28T02:46:47;9.38;;;7.35;;
5483;SDS011;2764;48.794;8.326;2023-02-28T02:47:51;10.20;;;8.00;;
5483;SDS011;2764;48.794;8.326;2023-02-28T02:48:53;11.80;;;7.95;;
5483;SDS011;2764;48.794;8.326;2023-02-28T02:49:59;9.70;;;7.60;;
5483;SDS011;2764;48.794;8.326;2023-02-28T02:51:07;7.53;;;6.93;;
5483;SDS011;2764;48.794;8.326;2023-02-28T02:52:15;8.85;;;7.85;;
5483;SDS011;2764;48.794;8.326;2023-02-28T02:53:42;8.95;;;7.00;;
5483;SDS011;2764;48.794;8.326;2023-02-28T02:54:51;6.78;;;6.18;;
5483;SDS011;2764;48.794;8.326;2023-02-28T02:55:57;6.53;;;5.95;;
5483;SDS011;2764;48.794;8.326;2023-02-28T02:57:03;9.80;;;6.90;;
5483;SDS011;2764;48.794;8.326;2023-02-28T02:58:14;9.40;;;7.13;;
5483;SDS011;2764;48.794;8.326;2023-02-28T02:59:20;9.85;;;7.20;;
5483;SDS011;2764;48.794;8.326;2023-02-28T03:00:26;8.23;;;7.45;;
5483;SDS011;2764;48.794;8.326;2023-02-28T03:01:33;9.07;;;7.55;;
5483;SDS011;2764;48.794;8.326;2023-02-28T03:02:37;10.00;;;6.57;;
5483;SDS011;2764;48.794;8.326;2023-02-28T03:03:42;10.80;;;6.70;;
5483;SDS011;2764;48.794;8.326;2023-02-28T03:04:50;9.68;;;7.43;;
5483;SDS011;2764;48.794;8.326;2023-02-28T03:05:59;9.48;;;7.35;;
5483;SDS011;2764;48.794;8.326;2023-02-28T03:07:02;9.20;;;7.15;;
5483;SDS011;2764;48.794;8.326;2023-02-28T03:08:04;8.88;;;7.55;;
5483;SDS011;2764;48.794;8.326;2023-02-28T03:09:06;7.60;;;6.90;;
5483;SDS011;2764;48.794;8.326;2023-02-28T03:10:29;7.40;;;6.65;;
5483;SDS011;2764;48.794;8.326;2023-02-28T03:11:31;7.47;;;6.78;;
5483;SDS011;2764;48.794;8.326;2023-02-28T03:12:48;16.15;;;7.53;;
5483;SDS011;2764;48.794;8.326;2023-02-28T03:15:23;19.90;;;8.23;;
5483;SDS011;2764;48.794;8.326;2023-02-28T03:20:17;8.90;;;7.97;;
5483;SDS011;2764;48.794;8.326;2023-02-28T03:23:00;8.65;;;7.75;;
5483;SDS011;2764;48.794;8.326;2023-02-28T03:24:11;10.77;;;7.32;;
5483;SDS011;2764;48.794;8.326;2023-02-28T03:26:50;10.25;;;7.90;;
5483;SDS011;2764;48.794;8.326;2023-02-28T03:29:37;7.97;;;7.18;;
5483;SDS011;2764;48.794;8.326;2023-02-28T03:30:48;8.07;;;7.22;;
5483;SDS011;2764;48.794;8.326;2023-02-28T03:32:38;8.02;;;7.32;;
5483;SDS011;2764;48.794;8.326;2023-02-28T03:33:49;10.38;;;8.02;;
5483;SDS011;2764;48.794;8.326;2023-02-28T03:35:16;10.27;;;8.75;;
5483;SDS011;2764;48.794;8.326;2023-02-28T03:36:25;10.55;;;8.20;;
5483;SDS011;2764;48.794;8.326;2023-02-28T03:37:31;9.02;;;8.23;;
5483;SDS011;2764;48.794;8.326;2023-02-28T03:38:44;9.00;;;7.95;;
5483;SDS011;2764;48.794;8.326;2023-02-28T03:39:58;10.48;;;7.95;;
5483;SDS011;2764;48.794;8.326;2023-02-28T03:41:09;9.00;;;8.02;;
5483;SDS011;2764;48.794;8.326;2023-02-28T03:42:21;10.60;;;6.90;;
5483;SDS011;2764;48.794;8.326;2023-02-28T03:43:29;7.97;;;7.28;;
5483;SDS011;2764;48.794;8.326;2023-02-28T03:44:42;9.25;;;7.00;;
5483;SDS011;2764;48.794;8.326;2023-02-28T03:45:47;10.20;;;8.38;;
5483;SDS011;2764;48.794;8.326;2023-02-28T03:47:01;10.95;;;8.65;;
5483;SDS011;2764;48.794;8.326;2023-02-28T03:48:23;13.60;;;9.38;;
5483;SDS011;2764;48.794;8.326;2023-02-28T03:49:46;12.00;;;9.63;;
5483;SDS011;2764;48.794;8.326;2023-02-28T03:50:55;9.55;;;8.05;;
5483;SDS011;2764;48.794;8.326;2023-02-28T03:52:01;8.65;;;7.78;;
5483;SDS011;2764;48.794;8.326;2023-02-28T03:54:23;8.10;;;7.32;;
5483;SDS011;2764;48.794;8.326;2023-02-28T03:55:36;8.02;;;7.30;;
5483;SDS011;2764;48.794;8.326;2023-02-28T03:56:57;8.35;;;7.35;;
5483;SDS011;2764;48.794;8.326;2023-02-28T03:58:05;8.93;;;8.20;;
5483;SDS011;2764;48.794;8.326;2023-02-28T04:01:09;7.72;;;7.03;;
5483;SDS011;2764;48.794;8.326;2023-02-28T04:02:18;8.35;;;7.50;;
5483;SDS011;2764;48.794;8.326;2023-02-28T04:03:20;8.88;;;7.90;;
5483;SDS011;2764;48.794;8.326;2023-02-28T04:04:25;10.13;;;8.55;;
5483;SDS011;2764;48.794;8.326;2023-02-28T04:05:31;8.40;;;7.70;;
5483;SDS011;2764;48.794;8.326;2023-02-28T04:06:36;9.88;;;8.88;;
5483;SDS011;2764;48.794;8.326;2023-02-28T04:07:40;8.43;;;7.70;;
5483;SDS011;2764;48.794;8.326;2023-02-28T04:08:45;11.15;;;8.98;;
5483;SDS011;2764;48.794;8.326;2023-02-28T04:09:51;11.60;;;8.35;;
5483;SDS011;2764;48.794;8.326;2023-02-28T04:11:04;9.00;;;8.10;;
5483;SDS011;2764;48.794;8.326;2023-02-28T04:12:32;9.20;;;8.13;;
5483;SDS011;2764;48.794;8.326;2023-02-28T04:13:34;9.55;;;8.25;;
5483;SDS011;2764;48.794;8.326;2023-02-28T04:14:37;12.30;;;8.60;;
5483;SDS011;2764;48.794;8.326;2023-02-28T04:15:39;10.57;;;9.05;;
5483;SDS011;2764;48.794;8.326;2023-02-28T04:16:43;10.60;;;9.25;;
5483;SDS011;2764;48.794;8.326;2023-02-28T04:17:46;9.77;;;8.55;;
5483;SDS011;2764;48.794;8.326;2023-02-28T04:18:48;8.93;;;8.10;;
5483;SDS011;2764;48.794;8.326;2023-02-28T04:19:51;9.18;;;8.25;;
5483;SDS011;2764;48.794;8.326;2023-02-28T04:20:55;10.38;;;8.68;;
5483;SDS011;2764;48.794;8.326;2023-02-28T04:22:03;9.05;;;8.15;;
5483;SDS011;2764;48.794;8.326;2023-02-28T04:23:11;10.98;;;8.40;;
5483;SDS011;2764;48.794;8.326;2023-02-28T04:24:15;8.35;;;7.55;;
5483;SDS011;2764;48.794;8.326;2023-02-28T04:25:22;10.32;;;9.25;;
5483;SDS011;2764;48.794;8.326;2023-02-28T04:26:29;8.80;;;8.00;;
5483;SDS011;2764;48.794;8.326;2023-02-28T04:27:33;8.60;;;7.85;;
5483;SDS011;2764;48.794;8.326;2023-02-28T04:28:38;10.02;;;8.75;;
5483;SDS011;2764;48.794;8.326;2023-02-28T04:29:41;8.75;;;8.00;;
5483;SDS011;2764;48.794;8.326;2023-02-28T04:30:47;12.23;;;9.25;;
5483;SDS011;2764;48.794;8.326;2023-02-28T04:31:56;9.38;;;8.18;;
5483;SDS011;2764;48.794;8.326;2023-02-28T04:33:02;9.57;;;8.25;;
5483;SDS011;2764;48.794;8.326;2023-02-28T04:34:04;8.80;;;7.93;;
5483;SDS011;2764;48.794;8.326;2023-02-28T04:35:07;10.32;;;8.18;;
5483;SDS011;2764;48.794;8.326;2023-02-28T04:36:12;8.13;;;7.40;;
5483;SDS011;2764;48.794;8.326;2023-02-28T04:37:15;9.90;;;8.68;;
5483;SDS011;2764;48.794;8.326;2023-02-28T04:38:18;9.20;;;8.30;;
5483;SDS011;2764;48.794;8.326;2023-02-28T04:39:21;10.15;;;8.65;;
5483;SDS011;2764;48.794;8.326;2023-02-28T04:40:27;8.73;;;7.93;;
5483;SDS011;2764;48.794;8.326;2023-02-28T04:41:29;14.85;;;8.30;;
5483;SDS011;2764;48.794;8.326;2023-02-28T04:42:35;11.75;;;9.40;;
5483;SDS011;2764;48.794;8.326;2023-02-28T04:43:42;8.77;;;8.02;;
5483;SDS011;2764;48.794;8.326;2023-02-28T04:44:47;9.10;;;8.00;;
5483;SDS011;2764;48.794;8.326;2023-02-28T04:45:50;9.63;;;8.55;;
5483;SDS011;2764;48.794;8.326;2023-02-28T04:46:54;11.65;;;9.38;;
5483;SDS011;2764;48.794;8.326;2023-02-28T04:47:56;9.70;;;8.57;;
5483;SDS011;2764;48.794;8.326;2023-02-28T04:48:58;10.55;;;9.45;;
5483;SDS011;2764;48.794;8.326;2023-02-28T04:50:02;12.43;;;9.75;;
5483;SDS011;2764;48.794;8.326;2023-02-28T04:51:10;10.68;;;9.57;;
5483;SDS011;2764;48.794;8.326;2023-02-28T04:52:14;10.48;;;8.40;;
5483;SDS011;2764;48.794;8.326;2023-02-28T04:53:16;12.23;;;10.93;;
5483;SDS011;2764;48.794;8.326;2023-02-28T04:54:20;10.32;;;9.27;;
5483;SDS011;2764;48.794;8.326;2023-02-28T04:55:22;10.93;;;9.90;;
5483;SDS011;2764;48.794;8.326;2023-02-28T04:56:25;11.25;;;9.95;;
5483;SDS011;2764;48.794;8.326;2023-02-28T04:57:29;11.20;;;9.90;;
5483;SDS011;2764;48.794;8.326;2023-02-28T04:58:32;11.95;;;10.40;;
5483;SDS011;2764;48.794;8.326;2023-02-28T04:59:35;19.35;;;9.90;;
5483;SDS011;2764;48.794;8.326;2023-02-28T05:00:37;11.50;;;9.25;;
5483;SDS011;2764;48.794;8.326;2023-02-28T05:01:40;13.80;;;10.82;;
5483;SDS011;2764;48.794;8.326;2023-02-28T05:02:48;12.20;;;10.50;;
5483;SDS011;2764;48.794;8.326;2023-02-28T05:03:51;15.98;;;9.88;;
5483;SDS011;2764;48.794;8.326;2023-02-28T05:04:54;14.93;;;10.80;;
5483;SDS011;2764;48.794;8.326;2023-02-28T05:05:57;11.73;;;10.52;;
5483;SDS011;2764;48.794;8.326;2023-02-28T05:06:59;10.27;;;9.18;;
5483;SDS011;2764;48.794;8.326;2023-02-28T05:08:04;12.13;;;10.27;;
5483;SDS011;2764;48.794;8.326;2023-02-28T05:09:06;11.43;;;9.02;;
5483;SDS011;2764;48.794;8.326;2023-02-28T05:10:08;10.27;;;9.27;;
5483;SDS011;2764;48.794;8.326;2023-02-28T05:11:15;11.48;;;9.80;;
5483;SDS011;2764;48.794;8.326;2023-02-28T05:12:21;11.45;;;9.82;;
5483;SDS011;2764;48.794;8.326;2023-02-28T05:13:26;10.77;;;9.32;;
5483;SDS011;2764;48.794;8.326;2023-02-28T05:14:30;12.77;;;9.68;;
5483;SDS011;2764;48.794;8.326;2023-02-28T05:15:32;11.20;;;10.00;;
5483;SDS011;2764;48.794;8.326;2023-02-28T05:16:36;13.55;;;9.90;;
5483;SDS011;2764;48.794;8.326;2023-02-28T05:17:42;11.25;;;10.15;;
5483;SDS011;2764;48.794;8.326;2023-02-28T05:18:46;14.93;;;11.05;;
5483;SDS011;2764;48.794;8.326;2023-02-28T05:19:48;18.50;;;11.32;;
5483;SDS011;2764;48.794;8.326;2023-02-28T05:20:50;13.32;;;10.20;;
5483;SDS011;2764;48.794;8.326;2023-02-28T05:21:55;10.70;;;9.10;;
5483;SDS011;2764;48.794;8.326;2023-02-28T05:22:59;14.57;;;12.40;;
5483;SDS011;2764;48.794;8.326;2023-02-28T05:24:04;11.93;;;10.15;;
5483;SDS011;2764;48.794;8.326;2023-02-28T05:25:18;13.85;;;10.63;;
5483;SDS011;2764;48.794;8.326;2023-02-28T05:26:25;11.90;;;10.70;;
5483;SDS011;2764;48.794;8.326;2023-02-28T05:27:32;11.57;;;10.38;;
5483;SDS011;2764;48.794;8.326;2023-02-28T05:28:38;11.45;;;10.25;;
5483;SDS011;2764;48.794;8.326;2023-02-28T05:29:41;20.63;;;9.43;;
5483;SDS011;2764;48.794;8.326;2023-02-28T05:30:45;11.60;;;10.18;;
5483;SDS011;2764;48.794;8.326;2023-02-28T05:31:47;12.40;;;10.15;;
5483;SDS011;2764;48.794;8.326;2023-02-28T05:32:49;11.43;;;9.52;;
5483;SDS011;2764;48.794;8.326;2023-02-28T05:33:52;15.23;;;11.25;;
5483;SDS011;2764;48.794;8.326;2023-02-28T05:34:55;12.50;;;11.20;;
5483;SDS011;2764;48.794;8.326;2023-02-28T05:35:57;14.00;;;10.90;;
5483;SDS011;2764;48.794;8.326;2023-02-28T05:36:59;11.18;;;10.07;;
5483;SDS011;2764;48.794;8.326;2023-02-28T05:38:01;10.02;;;9.02;;
5483;SDS011;2764;48.794;8.326;2023-02-28T05:39:07;11.77;;;10.57;;
5483;SDS011;2764;48.794;8.326;2023-02-28T05:40:14;11.55;;;10.13;;
5483;SDS011;2764;48.794;8.326;2023-02-28T05:41:19;9.82;;;8.75;;
5483;SDS011;2764;48.794;8.326;2023-02-28T05:42:21;52.92;;;37.97;;
5483;SDS011;2764;48.794;8.326;2023-02-28T05:43:23;22.58;;;14.35;;
5483;SDS011;2764;48.794;8.326;2023-02-28T05:44:30;15.35;;;10.95;;
5483;SDS011;2764;48.794;8.326;2023-02-28T05:45:33;19.42;;;13.35;;
5483;SDS011;2764;48.794;8.326;2023-02-28T05:46:35;14.10;;;11.30;;
5483;SDS011;2764;48.794;8.326;2023-02-28T05:47:38;16.85;;;13.63;;
5483;SDS011;2764;48.794;8.326;2023-02-28T05:48:40;16.45;;;13.40;;
5483;SDS011;2764;48.794;8.326;2023-02-28T05:49:46;14.13;;;11.77;;
5483;SDS011;2764;48.794;8.326;2023-02-28T05:50:50;15.05;;;11.18;;
5483;SDS011;2764;48.794;8.326;2023-02-28T05:51:56;17.65;;;14.45;;
5483;SDS011;2764;48.794;8.326;2023-02-28T05:52:58;13.25;;;11.85;;
5483;SDS011;2764;48.794;8.326;2023-02-28T05:54:00;19.58;;;14.20;;
5483;SDS011;2764;48.794;8.326;2023-02-28T05:55:03;16.48;;;12.38;;
5483;SDS011;2764;48.794;8.326;2023-02-28T05:56:09;15.02;;;13.45;;
5483;SDS011;2764;48.794;8.326;2023-02-28T05:57:11;13.95;;;11.18;;
5483;SDS011;2764;48.794;8.326;2023-02-28T05:58:25;14.95;;;10.88;;
5483;SDS011;2764;48.794;8.326;2023-02-28T05:59:30;14.23;;;10.55;;
5483;SDS011;2764;48.794;8.326;2023-02-28T06:00:34;14.25;;;11.80;;
5483;SDS011;2764;48.794;8.326;2023-02-28T06:01:37;14.40;;;11.73;;
5483;SDS011;2764;48.794;8.326;2023-02-28T06:02:42;16.73;;;13.50;;
5483;SDS011;2764;48.794;8.326;2023-02-28T06:03:44;14.90;;;12.05;;
5483;SDS011;2764;48.794;8.326;2023-02-28T06:04:49;15.57;;;12.18;;
5483;SDS011;2764;48.794;8.326;2023-02-28T06:05:55;15.82;;;12.07;;
5483;SDS011;2764;48.794;8.326;2023-02-28T06:06:57;14.60;;;11.20;;
5483;SDS011;2764;48.794;8.326;2023-02-28T06:08:00;27.70;;;19.13;;
5483;SDS011;2764;48.794;8.326;2023-02-28T06:09:05;16.92;;;12.55;;
5483;SDS011;2764;48.794;8.326;2023-02-28T06:10:09;12.95;;;11.57;;
5483;SDS011;2764;48.794;8.326;2023-02-28T06:11:14;25.13;;;17.60;;
5483;SDS011;2764;48.794;8.326;2023-02-28T06:12:16;21.13;;;15.55;;
5483;SDS011;2764;48.794;8.326;2023-02-28T06:13:19;27.20;;;19.35;;
5483;SDS011;2764;48.794;8.326;2023-02-28T06:14:21;27.33;;;18.80;;
5483;SDS011;2764;48.794;8.326;2023-02-28T06:15:25;17.67;;;13.75;;
5483;SDS011;2764;48.794;8.326;2023-02-28T06:16:28;21.80;;;13.23;;
5483;SDS011;2764;48.794;8.326;2023-02-28T06:17:32;17.70;;;12.57;;
5483;SDS011;2764;48.794;8.326;2023-02-28T06:18:34;39.85;;;26.02;;
5483;SDS011;2764;48.794;8.326;2023-02-28T06:19:37;36.88;;;21.77;;
5483;SDS011;2764;48.794;8.326;2023-02-28T06:20:40;27.15;;;17.42;;
5483;SDS011;2764;48.794;8.326;2023-02-28T06:21:45;16.38;;;12.45;;
5483;SDS011;2764;48.794;8.326;2023-02-28T06:22:55;12.75;;;11.15;;
5483;SDS011;2764;48.794;8.326;2023-02-28T06:24:00;13.85;;;10.45;;
5483;SDS011;2764;48.794;8.326;2023-02-28T06:25:03;31.23;;;17.63;;
5483;SDS011;2764;48.794;8.326;2023-02-28T06:26:08;15.40;;;12.18;;
5483;SDS011;2764;48.794;8.326;2023-02-28T06:27:11;33.28;;;19.40;;
5483;SDS011;2764;48.794;8.326;2023-02-28T06:28:13;164.30;;;58.95;;
5483;SDS011;2764;48.794;8.326;2023-02-28T06:29:16;88.72;;;33.10;;
5483;SDS011;2764;48.794;8.326;2023-02-28T06:30:20;41.92;;;21.00;;
5483;SDS011;2764;48.794;8.326;2023-02-28T06:31:32;39.35;;;20.25;;
5483;SDS011;2764;48.794;8.326;2023-02-28T06:32:35;16.33;;;12.35;;
5483;SDS011;2764;48.794;8.326;2023-02-28T06:33:39;16.90;;;12.75;;
5483;SDS011;2764;48.794;8.326;2023-02-28T06:34:43;20.50;;;13.40;;
5483;SDS011;2764;48.794;8.326;2023-02-28T06:36:06;17.10;;;10.80;;
5483;SDS011;2764;48.794;8.326;2023-02-28T06:37:08;15.68;;;12.10;;
5483;SDS011;2764;48.794;8.326;2023-02-28T06:38:10;14.68;;;12.82;;
5483;SDS011;2764;48.794;8.326;2023-02-28T06:39:13;18.85;;;11.75;;
5483;SDS011;2764;48.794;8.326;2023-02-28T06:40:15;14.77;;;11.98;;
5483;SDS011;2764;48.794;8.326;2023-02-28T06:41:21;15.38;;;12.18;;
5483;SDS011;2764;48.794;8.326;2023-02-28T06:42:28;15.27;;;12.02;;
5483;SDS011;2764;48.794;8.326;2023-02-28T06:43:35;19.58;;;13.00;;
5483;SDS011;2764;48.794;8.326;2023-02-28T06:44:40;14.38;;;12.73;;
5483;SDS011;2764;48.794;8.326;2023-02-28T06:45:43;16.15;;;11.95;;
5483;SDS011;2764;48.794;8.326;2023-02-28T06:46:46;16.60;;;12.10;;
5483;SDS011;2764;48.794;8.326;2023-02-28T06:47:49;18.05;;;12.55;;
5483;SDS011;2764;48.794;8.326;2023-02-28T06:48:53;15.98;;;10.90;;
5483;SDS011;2764;48.794;8.326;2023-02-28T06:49:56;17.38;;;11.95;;
5483;SDS011;2764;48.794;8.326;2023-02-28T06:51:07;14.80;;;11.70;;
5483;SDS011;2764;48.794;8.326;2023-02-28T06:52:11;13.00;;;11.20;;
5483;SDS011;2764;48.794;8.326;2023-02-28T06:53:15;12.77;;;10.38;;
5483;SDS011;2764;48.794;8.326;2023-02-28T06:54:20;14.43;;;12.48;;
5483;SDS011;2764;48.794;8.326;2023-02-28T06:55:22;18.92;;;12.10;;
5483;SDS011;2764;48.794;8.326;2023-02-28T06:56:24;17.85;;;13.13;;
5483;SDS011;2764;48.794;8.326;2023-02-28T06:57:28;15.73;;;11.90;;
5483;SDS011;2764;48.794;8.326;2023-02-28T06:58:35;17.23;;;12.98;;
5483;SDS011;2764;48.794;8.326;2023-02-28T06:59:39;14.90;;;12.15;;
5483;SDS011;2764;48.794;8.326;2023-02-28T07:00:43;17.98;;;12.07;;
5483;SDS011;2764;48.794;8.326;2023-02-28T07:01:47;16.35;;;13.93;;
5483;SDS011;2764;48.794;8.326;2023-02-28T07:02:49;13.02;;;11.80;;
5483;SDS011;2764;48.794;8.326;2023-02-28T07:03:51;17.63;;;11.48;;
5483;SDS011;2764;48.794;8.326;2023-02-28T07:04:56;17.50;;;13.30;;
5483;SDS011;2764;48.794;8.326;2023-02-28T07:05:58;14.75;;;11.55;;
5483;SDS011;2764;48.794;8.326;2023-02-28T07:07:06;12.90;;;11.57;;
5483;SDS011;2764;48.794;8.326;2023-02-28T07:08:08;13.88;;;11.30;;
5483;SDS011;2764;48.794;8.326;2023-02-28T07:09:11;13.52;;;10.32;;
5483;SDS011;2764;48.794;8.326;2023-02-28T07:10:13;18.50;;;11.90;;
5483;SDS011;2764;48.794;8.326;2023-02-28T07:11:21;12.98;;;10.98;;
5483;SDS011;2764;48.794;8.326;2023-02-28T07:12:24;12.43;;;11.13;;
5483;SDS011;2764;48.794;8.326;2023-02-28T07:13:27;23.80;;;14.88;;
5483;SDS011;2764;48.794;8.326;2023-02-28T07:14:29;16.83;;;12.25;;